sensor_id;sensor_type;location;lat;lon;timestamp;P1;durP1;ratioP1;P2;durP2;ratioP2
19599;SDS011;9947;57.722;12.012;2022-10-03T00:00:09;17.90;;;11.33;;
19599;SDS011;9947;57.722;12.012;2022-10-03T00:02:51;14.97;;;9.53;;
19599;SDS011;9947;57.722;12.012;2022-10-03T00:05:50;15.67;;;9.90;;
19599;SDS011;9947;57.722;12.012;2022-10-03T00:08:26;19.87;;;9.83;;
19599;SDS011;9947;57.722;12.012;2022-10-03T00:11:10;18.33;;;10.03;;
19599;SDS011;9947;57.722;12.012;2022-10-03T00:13:53;36.83;;;12.13;;
19599;SDS011;9947;57.722;12.012;2022-10-03T00:16:25;18.77;;;10.07;;
19599;SDS011;9947;57.722;12.012;2022-10-03T00:19:05;63.33;;;14.60;;
19599;SDS011;9947;57.722;12.012;2022-10-03T00:21:45;16.87;;;10.73;;
19599;SDS011;9947;57.722;12.012;2022-10-03T00:24:22;19.13;;;10.73;;
19599;SDS011;9947;57.722;12.012;2022-10-03T00:26:58;15.87;;;9.93;;
19599;SDS011;9947;57.722;12.012;2022-10-03T00:29:35;14.17;;;9.90;;
19599;SDS011;9947;57.722;12.012;2022-10-03T00:32:24;17.37;;;9.20;;
19599;SDS011;9947;57.722;12.012;2022-10-03T00:35:07;14.53;;;9.13;;
19599;SDS011;9947;57.722;12.012;2022-10-03T00:37:53;15.97;;;9.17;;
19599;SDS011;9947;57.722;12.012;2022-10-03T00:47:01;10.40;;;7.63;;
19599;SDS011;9947;57.722;12.012;2022-10-03T00:53:00;14.30;;;7.97;;
19599;SDS011;9947;57.722;12.012;2022-10-03T00:55:40;12.33;;;7.67;;
19599;SDS011;9947;57.722;12.012;2022-10-03T00:58:22;11.50;;;7.23;;
19599;SDS011;9947;57.722;12.012;2022-10-03T01:01:18;9.73;;;6.37;;
19599;SDS011;9947;57.722;12.012;2022-10-03T01:03:51;8.13;;;6.43;;
19599;SDS011;9947;57.722;12.012;2022-10-03T01:06:31;11.30;;;6.63;;
19599;SDS011;9947;57.722;12.012;2022-10-03T01:09:11;9.03;;;6.70;;
19599;SDS011;9947;57.722;12.012;2022-10-03T01:12:04;10.83;;;6.30;;
19599;SDS011;9947;57.722;12.012;2022-10-03T01:14:46;11.97;;;7.37;;
19599;SDS011;9947;57.722;12.012;2022-10-03T01:17:25;13.63;;;7.60;;
19599;SDS011;9947;57.722;12.012;2022-10-03T01:20:05;17.37;;;7.87;;
19599;SDS011;9947;57.722;12.012;2022-10-03T01:22:48;10.87;;;7.40;;
19599;SDS011;9947;57.722;12.012;2022-10-03T01:25:32;10.27;;;7.13;;
19599;SDS011;9947;57.722;12.012;2022-10-03T01:28:15;12.73;;;6.93;;
19599;SDS011;9947;57.722;12.012;2022-10-03T01:31:12;10.20;;;6.93;;
19599;SDS011;9947;57.722;12.012;2022-10-03T01:33:43;16.70;;;7.17;;
19599;SDS011;9947;57.722;12.012;2022-10-03T01:36:19;10.27;;;7.27;;
19599;SDS011;9947;57.722;12.012;2022-10-03T01:38:54;11.70;;;8.63;;
19599;SDS011;9947;57.722;12.012;2022-10-03T01:41:26;15.90;;;9.20;;
19599;SDS011;9947;57.722;12.012;2022-10-03T01:44:02;15.93;;;8.73;;
19599;SDS011;9947;57.722;12.012;2022-10-03T01:46:37;12.73;;;8.67;;
19599;SDS011;9947;57.722;12.012;2022-10-03T01:49:09;20.10;;;7.87;;
19599;SDS011;9947;57.722;12.012;2022-10-03T01:51:47;12.13;;;6.77;;
19599;SDS011;9947;57.722;12.012;2022-10-03T01:54:21;13.00;;;6.77;;
19599;SDS011;9947;57.722;12.012;2022-10-03T01:56:56;9.27;;;6.60;;
19599;SDS011;9947;57.722;12.012;2022-10-03T01:59:31;16.93;;;6.90;;
19599;SDS011;9947;57.722;12.012;2022-10-03T02:02:07;7.57;;;6.47;;
19599;SDS011;9947;57.722;12.012;2022-10-03T02:04:46;10.50;;;6.77;;
19599;SDS011;9947;57.722;12.012;2022-10-03T02:07:20;11.30;;;6.67;;
19599;SDS011;9947;57.722;12.012;2022-10-03T02:09:57;8.97;;;6.33;;
19599;SDS011;9947;57.722;12.012;2022-10-03T02:12:35;8.77;;;6.30;;
19599;SDS011;9947;57.722;12.012;2022-10-03T02:15:12;15.20;;;6.53;;
19599;SDS011;9947;57.722;12.012;2022-10-03T02:17:45;9.97;;;6.30;;
19599;SDS011;9947;57.722;12.012;2022-10-03T02:20:22;11.43;;;6.60;;
19599;SDS011;9947;57.722;12.012;2022-10-03T02:22:53;14.20;;;6.60;;
19599;SDS011;9947;57.722;12.012;2022-10-03T02:25:26;16.00;;;7.13;;
19599;SDS011;9947;57.722;12.012;2022-10-03T02:28:21;13.97;;;7.00;;
19599;SDS011;9947;57.722;12.012;2022-10-03T02:31:46;13.63;;;6.57;;
19599;SDS011;9947;57.722;12.012;2022-10-03T02:34:31;9.70;;;6.20;;
19599;SDS011;9947;57.722;12.012;2022-10-03T02:37:48;18.40;;;7.00;;
19599;SDS011;9947;57.722;12.012;2022-10-03T02:43:45;12.93;;;7.13;;
19599;SDS011;9947;57.722;12.012;2022-10-03T02:52:58;10.83;;;6.70;;
19599;SDS011;9947;57.722;12.012;2022-10-03T02:59:10;9.63;;;6.33;;
19599;SDS011;9947;57.722;12.012;2022-10-03T03:02:01;10.07;;;6.20;;
19599;SDS011;9947;57.722;12.012;2022-10-03T03:04:59;13.07;;;6.27;;
19599;SDS011;9947;57.722;12.012;2022-10-03T03:11:06;10.27;;;6.50;;
19599;SDS011;9947;57.722;12.012;2022-10-03T03:19:54;12.83;;;6.33;;
19599;SDS011;9947;57.722;12.012;2022-10-03T03:22:35;27.57;;;7.20;;
19599;SDS011;9947;57.722;12.012;2022-10-03T03:25:27;12.57;;;6.27;;
19599;SDS011;9947;57.722;12.012;2022-10-03T03:28:22;15.83;;;7.40;;
19599;SDS011;9947;57.722;12.012;2022-10-03T03:31:00;12.00;;;6.63;;
19599;SDS011;9947;57.722;12.012;2022-10-03T03:33:37;11.77;;;7.10;;
19599;SDS011;9947;57.722;12.012;2022-10-03T03:36:19;10.13;;;6.40;;
19599;SDS011;9947;57.722;12.012;2022-10-03T03:38:58;10.53;;;7.20;;
19599;SDS011;9947;57.722;12.012;2022-10-03T03:41:40;10.77;;;6.33;;
19599;SDS011;9947;57.722;12.012;2022-10-03T03:47:39;8.87;;;6.27;;
19599;SDS011;9947;57.722;12.012;2022-10-03T03:50:30;8.17;;;6.23;;
19599;SDS011;9947;57.722;12.012;2022-10-03T03:59:10;12.50;;;7.60;;
19599;SDS011;9947;57.722;12.012;2022-10-03T04:01:53;11.77;;;6.43;;
19599;SDS011;9947;57.722;12.012;2022-10-03T04:04:45;10.37;;;6.40;;
19599;SDS011;9947;57.722;12.012;2022-10-03T04:07:27;8.70;;;5.53;;
19599;SDS011;9947;57.722;12.012;2022-10-03T04:10:14;9.17;;;6.27;;
19599;SDS011;9947;57.722;12.012;2022-10-03T04:12:59;9.87;;;5.63;;
19599;SDS011;9947;57.722;12.012;2022-10-03T04:16:05;9.03;;;5.57;;
19599;SDS011;9947;57.722;12.012;2022-10-03T04:18:44;8.63;;;6.07;;
19599;SDS011;9947;57.722;12.012;2022-10-03T04:21:47;7.70;;;6.20;;
19599;SDS011;9947;57.722;12.012;2022-10-03T04:24:52;13.57;;;6.40;;
19599;SDS011;9947;57.722;12.012;2022-10-03T04:27:35;10.57;;;6.30;;
19599;SDS011;9947;57.722;12.012;2022-10-03T04:30:12;15.17;;;7.63;;
19599;SDS011;9947;57.722;12.012;2022-10-03T04:32:49;10.73;;;6.87;;
19599;SDS011;9947;57.722;12.012;2022-10-03T04:38:42;9.27;;;6.27;;
19599;SDS011;9947;57.722;12.012;2022-10-03T04:41:20;13.17;;;6.97;;
19599;SDS011;9947;57.722;12.012;2022-10-03T04:43:58;10.27;;;6.23;;
19599;SDS011;9947;57.722;12.012;2022-10-03T04:46:37;9.20;;;5.87;;
19599;SDS011;9947;57.722;12.012;2022-10-03T04:49:09;10.43;;;7.10;;
19599;SDS011;9947;57.722;12.012;2022-10-03T04:51:43;12.80;;;7.30;;
19599;SDS011;9947;57.722;12.012;2022-10-03T04:54:20;12.47;;;6.43;;
19599;SDS011;9947;57.722;12.012;2022-10-03T04:56:56;14.87;;;7.37;;
19599;SDS011;9947;57.722;12.012;2022-10-03T04:59:40;12.03;;;6.03;;
19599;SDS011;9947;57.722;12.012;2022-10-03T05:02:19;13.47;;;6.57;;
19599;SDS011;9947;57.722;12.012;2022-10-03T05:05:02;13.50;;;6.50;;
19599;SDS011;9947;57.722;12.012;2022-10-03T05:07:44;12.67;;;6.37;;
19599;SDS011;9947;57.722;12.012;2022-10-03T05:10:29;14.03;;;6.53;;
19599;SDS011;9947;57.722;12.012;2022-10-03T05:13:11;11.43;;;6.80;;
19599;SDS011;9947;57.722;12.012;2022-10-03T05:15:48;9.53;;;6.73;;
19599;SDS011;9947;57.722;12.012;2022-10-03T05:18:23;14.37;;;6.80;;
19599;SDS011;9947;57.722;12.012;2022-10-03T05:21:02;11.97;;;6.20;;
19599;SDS011;9947;57.722;12.012;2022-10-03T05:23:40;8.43;;;6.20;;
19599;SDS011;9947;57.722;12.012;2022-10-03T05:26:17;10.90;;;6.13;;
19599;SDS011;9947;57.722;12.012;2022-10-03T05:28:51;12.03;;;6.63;;
19599;SDS011;9947;57.722;12.012;2022-10-03T05:31:33;11.20;;;6.70;;
19599;SDS011;9947;57.722;12.012;2022-10-03T05:34:11;14.43;;;7.00;;
19599;SDS011;9947;57.722;12.012;2022-10-03T05:37:01;12.17;;;7.27;;
19599;SDS011;9947;57.722;12.012;2022-10-03T05:42:49;14.47;;;7.40;;
19599;SDS011;9947;57.722;12.012;2022-10-03T05:45:27;12.70;;;7.20;;
19599;SDS011;9947;57.722;12.012;2022-10-03T05:48:06;16.37;;;7.07;;
19599;SDS011;9947;57.722;12.012;2022-10-03T05:50:41;8.03;;;6.83;;
19599;SDS011;9947;57.722;12.012;2022-10-03T05:56:51;12.63;;;7.40;;
19599;SDS011;9947;57.722;12.012;2022-10-03T06:02:50;11.30;;;6.87;;
19599;SDS011;9947;57.722;12.012;2022-10-03T06:05:43;13.73;;;6.40;;
19599;SDS011;9947;57.722;12.012;2022-10-03T06:11:56;15.33;;;7.20;;
19599;SDS011;9947;57.722;12.012;2022-10-03T06:14:29;12.50;;;6.87;;
19599;SDS011;9947;57.722;12.012;2022-10-03T06:20:17;19.23;;;8.90;;
19599;SDS011;9947;57.722;12.012;2022-10-03T06:23:11;14.30;;;7.47;;
19599;SDS011;9947;57.722;12.012;2022-10-03T06:26:18;12.47;;;7.80;;
19599;SDS011;9947;57.722;12.012;2022-10-03T06:32:09;13.80;;;7.87;;
19599;SDS011;9947;57.722;12.012;2022-10-03T06:41:15;12.90;;;8.33;;
19599;SDS011;9947;57.722;12.012;2022-10-03T06:44:10;17.83;;;8.03;;
19599;SDS011;9947;57.722;12.012;2022-10-03T06:46:58;13.37;;;7.27;;
19599;SDS011;9947;57.722;12.012;2022-10-03T06:58:39;14.13;;;6.83;;
19599;SDS011;9947;57.722;12.012;2022-10-03T07:01:37;12.53;;;7.13;;
19599;SDS011;9947;57.722;12.012;2022-10-03T07:04:54;10.17;;;6.73;;
19599;SDS011;9947;57.722;12.012;2022-10-03T07:07:51;8.83;;;5.93;;
19599;SDS011;9947;57.722;12.012;2022-10-03T07:10:49;10.70;;;6.17;;
19599;SDS011;9947;57.722;12.012;2022-10-03T07:16:46;11.83;;;5.97;;
19599;SDS011;9947;57.722;12.012;2022-10-03T07:25:42;12.03;;;5.00;;
19599;SDS011;9947;57.722;12.012;2022-10-03T07:31:36;6.20;;;3.93;;
19599;SDS011;9947;57.722;12.012;2022-10-03T07:37:14;5.37;;;3.03;;
19599;SDS011;9947;57.722;12.012;2022-10-03T07:40:23;10.60;;;2.80;;
19599;SDS011;9947;57.722;12.012;2022-10-03T07:43:16;4.50;;;2.50;;
19599;SDS011;9947;57.722;12.012;2022-10-03T07:46:06;3.50;;;2.87;;
19599;SDS011;9947;57.722;12.012;2022-10-03T07:49:05;8.63;;;3.73;;
19599;SDS011;9947;57.722;12.012;2022-10-03T07:51:50;7.27;;;3.60;;
19599;SDS011;9947;57.722;12.012;2022-10-03T07:54:37;5.47;;;3.30;;
19599;SDS011;9947;57.722;12.012;2022-10-03T07:57:31;6.43;;;3.03;;
19599;SDS011;9947;57.722;12.012;2022-10-03T08:00:15;4.93;;;2.53;;
19599;SDS011;9947;57.722;12.012;2022-10-03T08:05:53;6.83;;;2.57;;
19599;SDS011;9947;57.722;12.012;2022-10-03T08:08:52;8.80;;;2.90;;
19599;SDS011;9947;57.722;12.012;2022-10-03T08:11:47;10.60;;;4.07;;
19599;SDS011;9947;57.722;12.012;2022-10-03T08:14:31;5.63;;;3.40;;
19599;SDS011;9947;57.722;12.012;2022-10-03T08:17:29;8.87;;;3.63;;
19599;SDS011;9947;57.722;12.012;2022-10-03T08:20:32;11.33;;;4.07;;
19599;SDS011;9947;57.722;12.012;2022-10-03T08:23:28;16.13;;;4.83;;
19599;SDS011;9947;57.722;12.012;2022-10-03T08:26:16;7.23;;;4.17;;
19599;SDS011;9947;57.722;12.012;2022-10-03T08:29:02;11.10;;;4.40;;
19599;SDS011;9947;57.722;12.012;2022-10-03T08:31:46;12.90;;;4.57;;
19599;SDS011;9947;57.722;12.012;2022-10-03T08:34:33;7.57;;;3.13;;
19599;SDS011;9947;57.722;12.012;2022-10-03T08:37:27;13.33;;;3.50;;
19599;SDS011;9947;57.722;12.012;2022-10-03T08:40:23;7.00;;;2.50;;
19599;SDS011;9947;57.722;12.012;2022-10-03T08:43:38;8.77;;;2.60;;
19599;SDS011;9947;57.722;12.012;2022-10-03T08:46:36;5.03;;;1.57;;
19599;SDS011;9947;57.722;12.012;2022-10-03T08:49:29;5.77;;;1.80;;
19599;SDS011;9947;57.722;12.012;2022-10-03T08:52:22;3.97;;;1.57;;
19599;SDS011;9947;57.722;12.012;2022-10-03T08:58:04;7.30;;;1.90;;
19599;SDS011;9947;57.722;12.012;2022-10-03T09:00:58;7.63;;;1.73;;
19599;SDS011;9947;57.722;12.012;2022-10-03T09:04:05;7.33;;;1.73;;
19599;SDS011;9947;57.722;12.012;2022-10-03T09:06:59;3.60;;;1.70;;
19599;SDS011;9947;57.722;12.012;2022-10-03T09:09:56;4.43;;;1.63;;
19599;SDS011;9947;57.722;12.012;2022-10-03T09:15:45;13.53;;;4.27;;
19599;SDS011;9947;57.722;12.012;2022-10-03T09:18:43;7.10;;;2.97;;
19599;SDS011;9947;57.722;12.012;2022-10-03T09:21:34;16.57;;;4.80;;
19599;SDS011;9947;57.722;12.012;2022-10-03T09:24:23;14.60;;;4.80;;
19599;SDS011;9947;57.722;12.012;2022-10-03T09:27:20;20.90;;;5.30;;
19599;SDS011;9947;57.722;12.012;2022-10-03T09:33:23;12.73;;;3.67;;
19599;SDS011;9947;57.722;12.012;2022-10-03T09:36:25;9.50;;;2.17;;
19599;SDS011;9947;57.722;12.012;2022-10-03T09:48:30;36.47;;;9.50;;
19599;SDS011;9947;57.722;12.012;2022-10-03T09:51:19;9.97;;;3.40;;
19599;SDS011;9947;57.722;12.012;2022-10-03T10:00:15;10.07;;;3.07;;
19599;SDS011;9947;57.722;12.012;2022-10-03T10:03:11;6.60;;;2.17;;
19599;SDS011;9947;57.722;12.012;2022-10-03T10:09:24;26.13;;;7.43;;
19599;SDS011;9947;57.722;12.012;2022-10-03T10:12:08;3.83;;;1.80;;
19599;SDS011;9947;57.722;12.012;2022-10-03T10:15:02;15.33;;;5.03;;
19599;SDS011;9947;57.722;12.012;2022-10-03T10:23:51;7.27;;;2.40;;
19599;SDS011;9947;57.722;12.012;2022-10-03T10:27:00;6.40;;;1.50;;
19599;SDS011;9947;57.722;12.012;2022-10-03T10:35:45;1.93;;;1.20;;
19599;SDS011;9947;57.722;12.012;2022-10-03T10:41:44;4.17;;;1.30;;
19599;SDS011;9947;57.722;12.012;2022-10-03T10:53:59;1.93;;;1.20;;
19599;SDS011;9947;57.722;12.012;2022-10-03T10:59:56;3.97;;;1.40;;
19599;SDS011;9947;57.722;12.012;2022-10-03T11:12:12;3.93;;;1.70;;
19599;SDS011;9947;57.722;12.012;2022-10-03T11:31:00;4.83;;;1.70;;
19599;SDS011;9947;57.722;12.012;2022-10-03T11:37:05;3.03;;;1.30;;
19599;SDS011;9947;57.722;12.012;2022-10-03T11:39:42;2.10;;;1.37;;
19599;SDS011;9947;57.722;12.012;2022-10-03T11:42:17;4.27;;;1.40;;
19599;SDS011;9947;57.722;12.012;2022-10-03T11:44:56;5.10;;;1.50;;
19599;SDS011;9947;57.722;12.012;2022-10-03T11:47:37;4.60;;;1.50;;
19599;SDS011;9947;57.722;12.012;2022-10-03T11:50:14;2.10;;;1.40;;
19599;SDS011;9947;57.722;12.012;2022-10-03T11:52:57;2.93;;;1.33;;
19599;SDS011;9947;57.722;12.012;2022-10-03T11:55:36;2.47;;;1.70;;
19599;SDS011;9947;57.722;12.012;2022-10-03T11:58:15;2.93;;;1.60;;
19599;SDS011;9947;57.722;12.012;2022-10-03T12:01:03;9.67;;;1.57;;
19599;SDS011;9947;57.722;12.012;2022-10-03T12:03:47;4.80;;;1.40;;
19599;SDS011;9947;57.722;12.012;2022-10-03T12:06:24;5.50;;;1.50;;
19599;SDS011;9947;57.722;12.012;2022-10-03T12:09:31;4.57;;;2.17;;
19599;SDS011;9947;57.722;12.012;2022-10-03T12:12:09;31.57;;;8.70;;
19599;SDS011;9947;57.722;12.012;2022-10-03T12:14:42;3.87;;;1.67;;
19599;SDS011;9947;57.722;12.012;2022-10-03T12:17:13;17.93;;;5.03;;
19599;SDS011;9947;57.722;12.012;2022-10-03T12:19:46;3.83;;;1.60;;
19599;SDS011;9947;57.722;12.012;2022-10-03T12:22:38;4.87;;;1.67;;
19599;SDS011;9947;57.722;12.012;2022-10-03T12:25:19;3.57;;;1.50;;
19599;SDS011;9947;57.722;12.012;2022-10-03T12:28:03;4.03;;;1.40;;
19599;SDS011;9947;57.722;12.012;2022-10-03T12:30:40;5.13;;;1.30;;
19599;SDS011;9947;57.722;12.012;2022-10-03T12:33:22;1.87;;;1.20;;
19599;SDS011;9947;57.722;12.012;2022-10-03T12:36:02;15.37;;;5.30;;
19599;SDS011;9947;57.722;12.012;2022-10-03T12:38:42;34.83;;;9.60;;
19599;SDS011;9947;57.722;12.012;2022-10-03T12:41:21;31.60;;;9.07;;
19599;SDS011;9947;57.722;12.012;2022-10-03T12:44:04;12.27;;;4.03;;
19599;SDS011;9947;57.722;12.012;2022-10-03T12:46:46;30.43;;;8.47;;
19599;SDS011;9947;57.722;12.012;2022-10-03T12:49:28;3.03;;;1.30;;
19599;SDS011;9947;57.722;12.012;2022-10-03T12:52:13;7.00;;;2.47;;
19599;SDS011;9947;57.722;12.012;2022-10-03T12:54:47;2.70;;;1.40;;
19599;SDS011;9947;57.722;12.012;2022-10-03T12:57:32;5.50;;;1.50;;
19599;SDS011;9947;57.722;12.012;2022-10-03T13:00:13;5.57;;;1.60;;
19599;SDS011;9947;57.722;12.012;2022-10-03T13:02:46;2.83;;;1.43;;
19599;SDS011;9947;57.722;12.012;2022-10-03T13:05:41;30.20;;;7.87;;
19599;SDS011;9947;57.722;12.012;2022-10-03T13:08:25;15.30;;;5.13;;
19599;SDS011;9947;57.722;12.012;2022-10-03T13:11:08;14.60;;;4.43;;
19599;SDS011;9947;57.722;12.012;2022-10-03T13:13:54;24.97;;;7.17;;
19599;SDS011;9947;57.722;12.012;2022-10-03T13:16:31;21.80;;;5.53;;
19599;SDS011;9947;57.722;12.012;2022-10-03T13:19:08;21.60;;;5.17;;
19599;SDS011;9947;57.722;12.012;2022-10-03T13:21:46;9.13;;;2.03;;
19599;SDS011;9947;57.722;12.012;2022-10-03T13:24:22;7.03;;;2.67;;
19599;SDS011;9947;57.722;12.012;2022-10-03T13:26:59;19.70;;;4.80;;
19599;SDS011;9947;57.722;12.012;2022-10-03T13:29:35;6.30;;;1.80;;
19599;SDS011;9947;57.722;12.012;2022-10-03T13:32:08;4.63;;;1.50;;
19599;SDS011;9947;57.722;12.012;2022-10-03T13:34:58;5.20;;;1.67;;
19599;SDS011;9947;57.722;12.012;2022-10-03T13:37:48;4.63;;;1.80;;
19599;SDS011;9947;57.722;12.012;2022-10-03T13:40:31;3.83;;;1.67;;
19599;SDS011;9947;57.722;12.012;2022-10-03T13:43:07;2.87;;;1.40;;
19599;SDS011;9947;57.722;12.012;2022-10-03T13:45:40;4.23;;;1.50;;
19599;SDS011;9947;57.722;12.012;2022-10-03T13:48:10;4.60;;;1.40;;
19599;SDS011;9947;57.722;12.012;2022-10-03T13:50:41;19.20;;;5.13;;
19599;SDS011;9947;57.722;12.012;2022-10-03T13:53:33;6.33;;;1.80;;
19599;SDS011;9947;57.722;12.012;2022-10-03T13:56:17;5.10;;;1.60;;
19599;SDS011;9947;57.722;12.012;2022-10-03T13:58:55;4.33;;;1.50;;
19599;SDS011;9947;57.722;12.012;2022-10-03T14:01:32;5.03;;;1.73;;
19599;SDS011;9947;57.722;12.012;2022-10-03T14:07:02;5.10;;;1.33;;
19599;SDS011;9947;57.722;12.012;2022-10-03T14:09:45;2.17;;;1.50;;
19599;SDS011;9947;57.722;12.012;2022-10-03T14:12:31;4.03;;;1.50;;
19599;SDS011;9947;57.722;12.012;2022-10-03T14:15:15;4.03;;;1.50;;
19599;SDS011;9947;57.722;12.012;2022-10-03T14:17:53;3.83;;;1.50;;
19599;SDS011;9947;57.722;12.012;2022-10-03T14:20:32;2.93;;;1.50;;
19599;SDS011;9947;57.722;12.012;2022-10-03T14:23:11;6.53;;;1.53;;
19599;SDS011;9947;57.722;12.012;2022-10-03T14:25:50;1.50;;;1.40;;
19599;SDS011;9947;57.722;12.012;2022-10-03T14:28:26;11.13;;;3.30;;
19599;SDS011;9947;57.722;12.012;2022-10-03T14:31:02;7.20;;;2.83;;
19599;SDS011;9947;57.722;12.012;2022-10-03T14:33:38;9.27;;;2.67;;
19599;SDS011;9947;57.722;12.012;2022-10-03T14:36:14;10.33;;;3.20;;
19599;SDS011;9947;57.722;12.012;2022-10-03T14:39:04;16.20;;;4.77;;
19599;SDS011;9947;57.722;12.012;2022-10-03T14:42:06;8.07;;;2.60;;
19599;SDS011;9947;57.722;12.012;2022-10-03T14:44:46;20.77;;;5.87;;
19599;SDS011;9947;57.722;12.012;2022-10-03T14:47:19;4.40;;;1.73;;
19599;SDS011;9947;57.722;12.012;2022-10-03T14:49:48;7.90;;;2.97;;
19599;SDS011;9947;57.722;12.012;2022-10-03T14:52:26;7.63;;;2.20;;
19599;SDS011;9947;57.722;12.012;2022-10-03T14:55:02;21.00;;;5.20;;
19599;SDS011;9947;57.722;12.012;2022-10-03T14:57:41;15.80;;;5.10;;
19599;SDS011;9947;57.722;12.012;2022-10-03T15:00:22;3.13;;;1.30;;
19599;SDS011;9947;57.722;12.012;2022-10-03T15:03:11;10.03;;;3.00;;
19599;SDS011;9947;57.722;12.012;2022-10-03T15:05:52;18.20;;;4.77;;
19599;SDS011;9947;57.722;12.012;2022-10-03T15:08:25;29.63;;;8.23;;
19599;SDS011;9947;57.722;12.012;2022-10-03T15:10:58;8.67;;;1.80;;
19599;SDS011;9947;57.722;12.012;2022-10-03T15:13:32;4.13;;;1.40;;
19599;SDS011;9947;57.722;12.012;2022-10-03T15:16:04;3.23;;;1.50;;
19599;SDS011;9947;57.722;12.012;2022-10-03T15:18:33;12.37;;;3.70;;
19599;SDS011;9947;57.722;12.012;2022-10-03T15:21:03;46.17;;;15.03;;
19599;SDS011;9947;57.722;12.012;2022-10-03T15:23:36;28.33;;;8.20;;
19599;SDS011;9947;57.722;12.012;2022-10-03T15:26:07;10.30;;;3.67;;
19599;SDS011;9947;57.722;12.012;2022-10-03T15:28:39;18.77;;;4.70;;
19599;SDS011;9947;57.722;12.012;2022-10-03T15:31:21;7.83;;;2.40;;
19599;SDS011;9947;57.722;12.012;2022-10-03T15:33:57;5.43;;;1.90;;
19599;SDS011;9947;57.722;12.012;2022-10-03T15:36:27;3.90;;;1.40;;
19599;SDS011;9947;57.722;12.012;2022-10-03T15:38:57;6.00;;;1.90;;
19599;SDS011;9947;57.722;12.012;2022-10-03T15:41:30;6.03;;;1.80;;
19599;SDS011;9947;57.722;12.012;2022-10-03T15:44:04;7.23;;;1.50;;
19599;SDS011;9947;57.722;12.012;2022-10-03T15:46:42;2.83;;;1.60;;
19599;SDS011;9947;57.722;12.012;2022-10-03T15:49:18;6.13;;;1.77;;
19599;SDS011;9947;57.722;12.012;2022-10-03T15:51:50;7.80;;;1.70;;
19599;SDS011;9947;57.722;12.012;2022-10-03T15:54:19;6.83;;;1.90;;
19599;SDS011;9947;57.722;12.012;2022-10-03T15:56:48;4.27;;;1.57;;
19599;SDS011;9947;57.722;12.012;2022-10-03T15:59:24;2.30;;;1.77;;
19599;SDS011;9947;57.722;12.012;2022-10-03T16:01:53;6.10;;;1.80;;
19599;SDS011;9947;57.722;12.012;2022-10-03T16:04:23;3.63;;;1.67;;
19599;SDS011;9947;57.722;12.012;2022-10-03T16:06:57;4.37;;;1.60;;
19599;SDS011;9947;57.722;12.012;2022-10-03T16:09:29;3.77;;;1.77;;
19599;SDS011;9947;57.722;12.012;2022-10-03T16:12:05;3.33;;;1.70;;
19599;SDS011;9947;57.722;12.012;2022-10-03T16:15:14;4.77;;;1.67;;
19599;SDS011;9947;57.722;12.012;2022-10-03T16:17:47;4.03;;;1.50;;
19599;SDS011;9947;57.722;12.012;2022-10-03T16:20:17;3.83;;;1.77;;
19599;SDS011;9947;57.722;12.012;2022-10-03T16:22:49;2.67;;;1.50;;
19599;SDS011;9947;57.722;12.012;2022-10-03T16:25:20;6.47;;;1.57;;
19599;SDS011;9947;57.722;12.012;2022-10-03T16:27:50;4.07;;;1.50;;
19599;SDS011;9947;57.722;12.012;2022-10-03T16:30:23;2.83;;;1.47;;
19599;SDS011;9947;57.722;12.012;2022-10-03T16:32:59;4.57;;;1.43;;
19599;SDS011;9947;57.722;12.012;2022-10-03T16:35:35;3.00;;;1.57;;
19599;SDS011;9947;57.722;12.012;2022-10-03T16:38:05;8.40;;;1.37;;
19599;SDS011;9947;57.722;12.012;2022-10-03T16:40:40;3.20;;;1.60;;
19599;SDS011;9947;57.722;12.012;2022-10-03T16:43:12;2.97;;;1.50;;
19599;SDS011;9947;57.722;12.012;2022-10-03T16:45:44;4.53;;;2.00;;
19599;SDS011;9947;57.722;12.012;2022-10-03T16:48:15;3.30;;;1.77;;
19599;SDS011;9947;57.722;12.012;2022-10-03T16:51:03;8.93;;;2.27;;
19599;SDS011;9947;57.722;12.012;2022-10-03T16:53:39;9.23;;;2.67;;
19599;SDS011;9947;57.722;12.012;2022-10-03T16:56:11;4.87;;;2.00;;
19599;SDS011;9947;57.722;12.012;2022-10-03T16:58:42;3.63;;;1.73;;
19599;SDS011;9947;57.722;12.012;2022-10-03T17:01:16;9.00;;;2.20;;
19599;SDS011;9947;57.722;12.012;2022-10-03T17:03:54;6.30;;;1.90;;
19599;SDS011;9947;57.722;12.012;2022-10-03T17:06:26;4.23;;;1.97;;
19599;SDS011;9947;57.722;12.012;2022-10-03T17:08:56;5.63;;;1.73;;
19599;SDS011;9947;57.722;12.012;2022-10-03T17:11:27;10.77;;;2.27;;
19599;SDS011;9947;57.722;12.012;2022-10-03T17:13:58;6.93;;;1.97;;
19599;SDS011;9947;57.722;12.012;2022-10-03T17:16:33;5.17;;;2.23;;
19599;SDS011;9947;57.722;12.012;2022-10-03T17:19:13;4.50;;;1.70;;
19599;SDS011;9947;57.722;12.012;2022-10-03T17:21:46;3.63;;;1.70;;
19599;SDS011;9947;57.722;12.012;2022-10-03T17:24:26;5.67;;;1.70;;
19599;SDS011;9947;57.722;12.012;2022-10-03T17:27:04;3.40;;;1.60;;
19599;SDS011;9947;57.722;12.012;2022-10-03T17:29:41;6.83;;;1.97;;
19599;SDS011;9947;57.722;12.012;2022-10-03T17:32:17;7.47;;;2.00;;
19599;SDS011;9947;57.722;12.012;2022-10-03T17:34:50;3.70;;;1.63;;
19599;SDS011;9947;57.722;12.012;2022-10-03T17:37:34;5.93;;;2.00;;
19599;SDS011;9947;57.722;12.012;2022-10-03T17:40:21;2.83;;;1.77;;
19599;SDS011;9947;57.722;12.012;2022-10-03T17:43:01;2.80;;;2.03;;
19599;SDS011;9947;57.722;12.012;2022-10-03T17:45:37;7.07;;;2.23;;
19599;SDS011;9947;57.722;12.012;2022-10-03T17:48:15;6.23;;;2.80;;
19599;SDS011;9947;57.722;12.012;2022-10-03T17:50:53;6.67;;;2.20;;
19599;SDS011;9947;57.722;12.012;2022-10-03T17:53:27;6.33;;;2.30;;
19599;SDS011;9947;57.722;12.012;2022-10-03T17:55:57;5.00;;;2.57;;
19599;SDS011;9947;57.722;12.012;2022-10-03T17:58:30;6.67;;;2.50;;
19599;SDS011;9947;57.722;12.012;2022-10-03T18:00:59;4.43;;;2.10;;
19599;SDS011;9947;57.722;12.012;2022-10-03T18:03:36;5.03;;;2.30;;
19599;SDS011;9947;57.722;12.012;2022-10-03T18:09:18;4.77;;;1.93;;
19599;SDS011;9947;57.722;12.012;2022-10-03T18:11:50;6.37;;;2.00;;
19599;SDS011;9947;57.722;12.012;2022-10-03T18:14:24;8.83;;;2.43;;
19599;SDS011;9947;57.722;12.012;2022-10-03T18:17:00;5.27;;;2.27;;
19599;SDS011;9947;57.722;12.012;2022-10-03T18:19:34;2.97;;;2.10;;
19599;SDS011;9947;57.722;12.012;2022-10-03T18:22:14;7.87;;;2.10;;
19599;SDS011;9947;57.722;12.012;2022-10-03T18:24:54;4.00;;;2.27;;
19599;SDS011;9947;57.722;12.012;2022-10-03T18:27:33;8.50;;;2.40;;
19599;SDS011;9947;57.722;12.012;2022-10-03T18:30:26;12.83;;;2.70;;
19599;SDS011;9947;57.722;12.012;2022-10-03T18:33:00;5.20;;;2.07;;
19599;SDS011;9947;57.722;12.012;2022-10-03T18:35:33;9.03;;;2.40;;
19599;SDS011;9947;57.722;12.012;2022-10-03T18:38:06;3.87;;;2.20;;
19599;SDS011;9947;57.722;12.012;2022-10-03T18:40:44;3.50;;;2.10;;
19599;SDS011;9947;57.722;12.012;2022-10-03T18:46:04;6.47;;;3.23;;
19599;SDS011;9947;57.722;12.012;2022-10-03T18:48:45;8.87;;;3.63;;
19599;SDS011;9947;57.722;12.012;2022-10-03T18:51:22;21.70;;;8.60;;
19599;SDS011;9947;57.722;12.012;2022-10-03T18:53:57;21.77;;;11.37;;
19599;SDS011;9947;57.722;12.012;2022-10-03T18:56:27;9.97;;;3.40;;
19599;SDS011;9947;57.722;12.012;2022-10-03T18:58:58;5.77;;;2.77;;
19599;SDS011;9947;57.722;12.012;2022-10-03T19:01:36;6.50;;;2.17;;
19599;SDS011;9947;57.722;12.012;2022-10-03T19:04:10;5.50;;;2.50;;
19599;SDS011;9947;57.722;12.012;2022-10-03T19:06:42;8.83;;;2.83;;
19599;SDS011;9947;57.722;12.012;2022-10-03T19:09:13;11.83;;;4.10;;
19599;SDS011;9947;57.722;12.012;2022-10-03T19:11:46;6.27;;;3.23;;
19599;SDS011;9947;57.722;12.012;2022-10-03T19:14:24;6.23;;;3.37;;
19599;SDS011;9947;57.722;12.012;2022-10-03T19:16:57;9.60;;;2.90;;